Terminal Aerodrome Forecast
Issued by NWS

Home | Current Version | Previous Version | Text Only | Print | Product List | Glossary On
Versions: 1 2 3 4 5 6 7 8 9 10 11 12 13 14 15 16 17 18 19 20 21 22 23 24 25
000
FTUS43 KGRB 181959 AAA
TAFAUW
TAF AMD
KAUW 181959Z 1820/1918 22008KT 4SM BR OVC005
     FM182300 22010KT P6SM BKN010
     FM190300 24009G17KT P6SM SCT018 OVC100
     FM191200 28010G19KT P6SM FEW035=

USA.gov is the U.S. government's official web portal to all federal, state and local government web resources and services.